createdAt,value
2022-08-05T00:00:00.255Z,14.88
2022-08-05T00:02:27.810Z,14.84
2022-08-05T00:04:56.256Z,14.81
2022-08-05T00:07:59.762Z,14.80
2022-08-05T00:10:11.294Z,14.77
2022-08-05T00:12:55.914Z,14.76
2022-08-05T00:15:55.550Z,14.72
2022-08-05T00:18:21.274Z,14.69
2022-08-05T00:20:49.244Z,14.68
2022-08-05T00:23:16.450Z,14.67
2022-08-05T00:25:46.136Z,14.67
2022-08-05T00:28:14.089Z,14.66
2022-08-05T00:30:44.079Z,14.64
2022-08-05T00:33:15.679Z,14.64
2022-08-05T00:36:16.062Z,14.63
2022-08-05T00:38:45.538Z,14.62
2022-08-05T00:41:13.527Z,14.63
2022-08-05T00:43:46.863Z,14.62
2022-08-05T00:46:16.032Z,14.64
2022-08-05T00:48:51.362Z,14.63
2022-08-05T00:51:51.194Z,14.63
2022-08-05T00:54:07.470Z,14.60
2022-08-05T00:56:34.626Z,14.60
2022-08-05T00:59:02.164Z,14.59
2022-08-05T01:01:48.754Z,14.58
2022-08-05T01:04:20.394Z,14.58
2022-08-05T01:06:55.035Z,14.60
2022-08-05T01:09:22.711Z,14.61
2022-08-05T01:11:52.297Z,14.61
2022-08-05T01:14:44.647Z,14.57
2022-08-05T01:17:23.355Z,14.57
2022-08-05T01:20:03.792Z,14.52
2022-08-05T01:22:57.347Z,14.50
2022-08-05T01:25:53.686Z,14.46
2022-08-05T01:28:51.915Z,14.46
2022-08-05T01:31:45.429Z,14.45
2022-08-05T01:34:42.586Z,14.47
2022-08-05T01:37:36.998Z,14.45
2022-08-05T01:40:12.777Z,14.48
2022-08-05T01:42:41.577Z,14.48
2022-08-05T01:45:09.910Z,14.50
2022-08-05T01:47:39.846Z,14.50
2022-08-05T01:50:15.679Z,14.50
2022-08-05T01:52:50.164Z,14.47
2022-08-05T01:55:20.844Z,14.45
2022-08-05T01:58:29.495Z,14.47
2022-08-05T02:00:39.648Z,14.38
2022-08-05T02:03:24.333Z,14.40
2022-08-05T02:05:57.823Z,14.36
2022-08-05T02:08:29.022Z,14.38
2022-08-05T02:11:08.048Z,14.35
2022-08-05T02:13:53.529Z,14.32
2022-08-05T02:16:27.633Z,14.27
2022-08-05T02:19:00.147Z,14.26
2022-08-05T02:21:38.016Z,14.20
2022-08-05T02:24:18.724Z,14.20
2022-08-05T02:26:56.604Z,14.15
2022-08-05T02:30:00.052Z,14.12
2022-08-05T02:32:23.938Z,14.10
2022-08-05T02:35:02.163Z,14.07
2022-08-05T02:37:42.761Z,14.01
2022-08-05T02:40:17.144Z,13.97
2022-08-05T02:42:52.792Z,13.97
2022-08-05T02:45:24.020Z,13.95
2022-08-05T02:48:06.577Z,13.93
2022-08-05T02:50:38.344Z,13.90
2022-08-05T02:53:11.779Z,13.87
2022-08-05T02:55:55.079Z,13.81
2022-08-05T02:58:28.964Z,13.82
2022-08-05T03:01:01.764Z,13.80
2022-08-05T03:03:34.158Z,13.78
2022-08-05T03:06:56.650Z,13.79
2022-08-05T03:09:05.986Z,13.82
2022-08-05T03:11:56.548Z,13.84
2022-08-05T03:14:22.297Z,13.87
2022-08-05T03:16:49.594Z,13.87
2022-08-05T03:19:33.738Z,13.89
2022-08-05T03:22:04.915Z,13.89
2022-08-05T03:24:46.923Z,13.89
2022-08-05T03:27:14.516Z,13.91
2022-08-05T03:29:45.705Z,13.98
2022-08-05T03:32:31.415Z,14.01
2022-08-05T03:34:59.584Z,14.07
2022-08-05T03:37:27.759Z,14.04
2022-08-05T03:39:59.433Z,14.14
2022-08-05T03:42:32.859Z,14.18
2022-08-05T03:45:21.464Z,14.24
2022-08-05T03:47:50.676Z,14.28
2022-08-05T03:50:18.811Z,14.34
2022-08-05T03:55:51.687Z,14.41
2022-08-05T03:56:12.103Z,14.46
2022-08-05T03:58:46.808Z,14.55
2022-08-05T04:01:20.724Z,14.64
2022-08-05T04:04:09.862Z,14.76
2022-08-05T04:06:37.789Z,14.87
2022-08-05T04:09:08.785Z,15.01
2022-08-05T04:11:47.082Z,15.15
2022-08-05T04:14:17.846Z,15.36
2022-08-05T04:16:45.582Z,15.58
2022-08-05T04:19:13.344Z,15.83
2022-08-05T04:22:05.187Z,16.06
2022-08-05T04:24:28.630Z,16.31
2022-08-05T04:26:58.064Z,16.55
2022-08-05T04:29:25.174Z,16.81
2022-08-05T04:31:54.296Z,17.02
2022-08-05T04:34:32.385Z,17.22
2022-08-05T04:37:00.835Z,17.47
2022-08-05T04:39:31.412Z,17.67
2022-08-05T04:41:59.348Z,17.92
2022-08-05T04:44:30.006Z,18.22
2022-08-05T04:46:59.286Z,18.51
2022-08-05T04:49:38.836Z,18.83
2022-08-05T04:52:15.155Z,19.11
2022-08-05T04:54:42.083Z,19.32
2022-08-05T04:57:09.028Z,19.56
2022-08-05T04:59:38.983Z,19.80
2022-08-05T05:02:36.541Z,20.11
2022-08-05T05:05:02.728Z,20.51
2022-08-05T05:07:32.878Z,20.94
2022-08-05T05:10:06.246Z,21.29
2022-08-05T05:12:33.555Z,21.64
2022-08-05T05:15:03.747Z,21.96
2022-08-05T05:17:56.566Z,22.28
2022-08-05T05:20:28.743Z,22.71
2022-08-05T05:23:08.011Z,23.16
2022-08-05T05:25:41.032Z,23.52
2022-08-05T05:28:09.713Z,23.99
2022-08-05T05:30:39.321Z,24.31
2022-08-05T05:33:16.602Z,24.65
2022-08-05T05:35:46.936Z,25.04
2022-08-05T05:38:26.860Z,25.40
2022-08-05T05:40:57.574Z,25.85
2022-08-05T05:43:54.767Z,26.31
2022-08-05T05:46:17.598Z,26.80
2022-08-05T05:48:48.200Z,27.28
2022-08-05T05:51:23.269Z,27.72
2022-08-05T05:53:57.775Z,28.36
2022-08-05T05:56:33.138Z,28.93
2022-08-05T05:59:05.847Z,29.37
2022-08-05T06:01:37.551Z,29.87
2022-08-05T06:04:12.003Z,30.51
2022-08-05T06:06:42.658Z,31.13
2022-08-05T06:09:17.094Z,31.59
2022-08-05T06:11:59.066Z,32.08
2022-08-05T06:14:28.119Z,32.53
2022-08-05T06:16:57.094Z,32.97
2022-08-05T06:19:33.902Z,33.26
2022-08-05T06:22:04.692Z,33.44
2022-08-05T06:24:34.954Z,33.61
2022-08-05T06:27:04.092Z,33.57
2022-08-05T06:29:49.650Z,33.67
2022-08-05T06:32:26.217Z,33.67
2022-08-05T06:34:59.179Z,33.70
2022-08-05T06:37:39.412Z,33.88
2022-08-05T06:40:18.503Z,34.36
2022-08-05T06:42:52.722Z,34.76
2022-08-05T06:45:44.811Z,35.05
2022-08-05T06:48:35.970Z,35.33
2022-08-05T06:50:56.201Z,35.60
2022-08-05T06:53:28.290Z,35.83
2022-08-05T06:56:00.038Z,35.71
2022-08-05T06:58:29.904Z,35.63
2022-08-05T07:01:03.732Z,35.70
2022-08-05T07:03:32.545Z,35.44
2022-08-05T07:06:06.137Z,35.60
2022-08-05T07:08:43.226Z,35.73
2022-08-05T07:11:16.038Z,35.66
2022-08-05T07:14:02.942Z,35.80
2022-08-05T07:18:00.087Z,36.26
2022-08-05T07:22:28.481Z,35.65
2022-08-05T07:25:23.620Z,34.42
2022-08-05T07:27:58.772Z,33.68
2022-08-05T07:30:38.799Z,33.61
2022-08-05T07:33:15.931Z,33.05
2022-08-05T07:36:03.568Z,32.77
2022-08-05T07:38:42.901Z,33.04
2022-08-05T07:42:13.277Z,33.12
2022-08-05T07:44:14.297Z,33.00
2022-08-05T07:46:48.399Z,32.99
2022-08-05T07:49:16.356Z,32.97
2022-08-05T07:51:53.717Z,33.10
2022-08-05T07:54:31.718Z,33.51
2022-08-05T07:57:22.505Z,33.44
2022-08-05T07:59:49.907Z,33.56
2022-08-05T08:02:17.783Z,33.89
2022-08-05T08:04:49.392Z,34.13
2022-08-05T08:07:23.066Z,34.51
2022-08-05T08:09:52.361Z,34.67
2022-08-05T08:12:36.903Z,35.09
2022-08-05T08:15:13.941Z,35.28
2022-08-05T08:17:49.836Z,34.89
2022-08-05T08:20:59.872Z,35.10
2022-08-05T08:24:00.968Z,35.27
2022-08-05T08:26:02.487Z,35.44
2022-08-05T08:28:37.192Z,35.91
2022-08-05T08:31:09.843Z,35.93
2022-08-05T08:33:42.312Z,35.57
2022-08-05T08:36:37.645Z,35.17
2022-08-05T08:38:58.201Z,35.61
2022-08-05T08:41:51.989Z,35.65
2022-08-05T08:45:22.914Z,35.48
2022-08-05T08:47:47.238Z,35.14
2022-08-05T08:50:23.438Z,35.15
2022-08-05T08:52:54.217Z,35.44
2022-08-05T08:56:01.979Z,35.77
2022-08-05T08:58:12.846Z,35.71
2022-08-05T09:00:42.417Z,35.59
2022-08-05T09:03:11.760Z,35.72
2022-08-05T09:06:07.573Z,35.75
2022-08-05T09:08:30.410Z,36.25
2022-08-05T09:10:58.865Z,36.36
2022-08-05T09:13:31.564Z,36.17
2022-08-05T09:16:16.767Z,36.31
2022-08-05T09:18:44.645Z,36.41
2022-08-05T09:21:21.280Z,36.53
2022-08-05T09:24:10.461Z,36.61
2022-08-05T09:26:37.427Z,36.43
2022-08-05T09:29:07.216Z,36.06
2022-08-05T09:32:40.631Z,35.55
2022-08-05T09:34:23.192Z,35.66
2022-08-05T09:36:55.158Z,35.65
2022-08-05T09:39:39.507Z,35.29
2022-08-05T09:42:17.393Z,35.14
2022-08-05T09:44:56.224Z,35.60
2022-08-05T09:47:49.088Z,35.78
2022-08-05T09:50:38.849Z,35.99
2022-08-05T09:53:07.187Z,36.09
2022-08-05T09:55:57.168Z,36.62
2022-08-05T09:58:24.170Z,36.94
2022-08-05T10:00:59.475Z,37.15
2022-08-05T10:03:56.669Z,37.20
2022-08-05T10:06:19.440Z,37.28
2022-08-05T10:08:53.941Z,37.65
2022-08-05T10:11:23.181Z,38.00
2022-08-05T10:13:54.586Z,38.37
2022-08-05T10:16:37.934Z,38.42
2022-08-05T10:19:11.636Z,38.79
2022-08-05T10:21:40.763Z,38.82
2022-08-05T10:24:15.273Z,38.77
2022-08-05T10:26:48.900Z,38.47
2022-08-05T10:29:24.169Z,38.10
2022-08-05T10:32:54.432Z,38.35
2022-08-05T10:35:00.850Z,38.41
2022-08-05T10:37:41.341Z,38.22
2022-08-05T10:40:34.115Z,37.57
2022-08-05T10:43:23.216Z,37.70
2022-08-05T10:46:06.331Z,38.02
2022-08-05T10:48:56.551Z,38.70
2022-08-05T10:51:29.313Z,38.89
2022-08-05T10:54:01.703Z,39.09
2022-08-05T10:56:45.811Z,39.06
2022-08-05T11:00:03.740Z,38.57
2022-08-05T11:02:08.719Z,38.35
2022-08-05T11:04:54.718Z,38.54
2022-08-05T11:07:32.945Z,38.97
2022-08-05T11:10:22.539Z,38.64
2022-08-05T11:12:56.073Z,38.79
2022-08-05T11:16:00.099Z,39.27
2022-08-05T11:18:34.100Z,40.06
2022-08-05T11:21:11.637Z,40.43
2022-08-05T11:24:04.856Z,39.70
2022-08-05T11:26:32.448Z,39.02
2022-08-05T11:29:13.080Z,38.64
2022-08-05T11:31:57.454Z,38.39
2022-08-05T11:34:51.503Z,37.82
2022-08-05T11:38:29.050Z,37.70
2022-08-05T11:41:34.546Z,38.11
2022-08-05T11:44:05.874Z,39.08
2022-08-05T11:46:58.528Z,39.05
2022-08-05T11:49:34.124Z,38.88
2022-08-05T11:52:01.706Z,38.76
2022-08-05T11:54:40.720Z,38.79
2022-08-05T11:57:24.427Z,38.79
2022-08-05T11:59:53.634Z,37.98
2022-08-05T12:02:30.489Z,37.44
2022-08-05T12:05:07.987Z,37.52
2022-08-05T12:08:08.483Z,38.19
2022-08-05T12:10:38.569Z,38.21
2022-08-05T12:13:16.814Z,38.19
2022-08-05T12:15:49.955Z,38.49
2022-08-05T12:18:34.235Z,38.97
2022-08-05T12:21:15.384Z,38.77
2022-08-05T12:24:00.071Z,38.19
2022-08-05T12:26:36.432Z,38.17
2022-08-05T12:29:09.526Z,38.28
2022-08-05T12:31:46.246Z,38.06
2022-08-05T12:34:21.346Z,37.41
2022-08-05T12:36:53.659Z,36.71
2022-08-05T12:39:21.583Z,36.21
2022-08-05T12:41:48.902Z,35.82
2022-08-05T12:44:21.765Z,35.58
2022-08-05T12:47:01.792Z,35.43
2022-08-05T12:50:03.420Z,35.48
2022-08-05T12:52:42.443Z,35.42
2022-08-05T12:55:22.085Z,35.21
2022-08-05T12:58:49.514Z,34.75
2022-08-05T13:02:04.933Z,34.22
2022-08-05T13:03:32.261Z,34.01
2022-08-05T13:06:01.943Z,33.87
2022-08-05T13:08:32.634Z,33.71
2022-08-05T13:11:02.187Z,33.68
2022-08-05T13:14:06.134Z,33.72
2022-08-05T13:16:19.986Z,33.74
2022-08-05T13:18:57.932Z,33.93
2022-08-05T13:21:28.389Z,34.00
2022-08-05T13:24:08.586Z,34.13
2022-08-05T13:26:36.007Z,33.90
2022-08-05T13:29:03.228Z,33.55
2022-08-05T13:32:03.064Z,33.27
2022-08-05T13:34:21.465Z,33.01
2022-08-05T13:36:54.129Z,32.87
2022-08-05T13:40:12.771Z,32.79
2022-08-05T13:42:14.442Z,32.57
2022-08-05T13:44:45.686Z,32.44
2022-08-05T13:47:34.756Z,32.49
2022-08-05T13:50:04.637Z,32.53
2022-08-05T13:52:35.176Z,32.58
2022-08-05T13:55:07.932Z,32.55
2022-08-05T13:57:50.826Z,32.55
2022-08-05T14:00:26.861Z,32.51
2022-08-05T14:02:58.147Z,32.62
2022-08-05T14:05:48.177Z,32.64
2022-08-05T14:08:21.096Z,32.66
2022-08-05T14:10:59.783Z,32.72
2022-08-05T14:13:48.163Z,32.71
2022-08-05T14:16:17.106Z,32.60
2022-08-05T14:18:46.197Z,32.48
2022-08-05T14:22:07.361Z,32.53
2022-08-05T14:24:00.581Z,32.58
2022-08-05T14:26:38.742Z,32.43
2022-08-05T14:29:15.950Z,32.38
2022-08-05T14:32:02.882Z,32.30
2022-08-05T14:34:35.320Z,32.25
2022-08-05T14:37:04.704Z,32.17
2022-08-05T14:39:49.501Z,32.12
2022-08-05T14:42:22.487Z,32.02
2022-08-05T14:44:56.606Z,31.98
2022-08-05T14:48:03.727Z,32.01
2022-08-05T14:50:18.155Z,32.05
2022-08-05T14:52:53.594Z,32.06
2022-08-05T14:55:25.878Z,32.01
2022-08-05T14:58:10.956Z,31.97
2022-08-05T15:00:59.283Z,31.96
2022-08-05T15:03:33.010Z,31.95
2022-08-05T15:06:06.946Z,31.85
2022-08-05T15:08:59.488Z,31.72
2022-08-05T15:11:53.254Z,31.60
2022-08-05T15:14:20.091Z,31.48
2022-08-05T15:17:09.752Z,31.41
2022-08-05T15:19:51.708Z,31.26
2022-08-05T15:22:31.666Z,31.23
2022-08-05T15:24:59.487Z,31.23
2022-08-05T15:27:35.858Z,31.25
2022-08-05T15:30:05.062Z,31.25
2022-08-05T15:32:32.267Z,31.22
2022-08-05T15:34:59.218Z,31.16
2022-08-05T15:38:32.325Z,31.16
2022-08-05T15:41:01.026Z,31.16
2022-08-05T15:43:12.616Z,31.19
2022-08-05T15:46:00.638Z,31.14
2022-08-05T15:48:29.271Z,31.04
2022-08-05T15:50:56.818Z,30.98
2022-08-05T15:53:26.569Z,30.95
2022-08-05T15:56:09.117Z,30.94
2022-08-05T15:58:41.072Z,30.93
2022-08-05T16:01:17.162Z,30.98
2022-08-05T16:03:50.557Z,30.93
2022-08-05T16:06:19.851Z,30.86
2022-08-05T16:08:51.091Z,30.82
2022-08-05T16:11:42.824Z,30.75
2022-08-05T16:14:09.096Z,30.64
2022-08-05T16:16:42.983Z,30.56
2022-08-05T16:19:10.440Z,30.51
2022-08-05T16:22:00.777Z,30.48
2022-08-05T16:24:39.897Z,30.41
2022-08-05T16:27:09.776Z,30.26
2022-08-05T16:29:50.097Z,30.26
2022-08-05T16:32:28.460Z,30.22
2022-08-05T16:34:56.994Z,30.14
2022-08-05T16:38:02.929Z,30.05
2022-08-05T16:40:24.840Z,29.97
2022-08-05T16:42:56.236Z,29.92
2022-08-05T16:46:04.279Z,29.86
2022-08-05T16:48:10.504Z,29.77
2022-08-05T16:50:38.055Z,29.69
2022-08-05T16:53:12.010Z,29.61
2022-08-05T16:55:46.917Z,29.54
2022-08-05T16:58:14.593Z,29.46
2022-08-05T17:00:48.175Z,29.37
2022-08-05T17:03:20.161Z,29.28
2022-08-05T17:05:53.935Z,29.18
2022-08-05T17:08:33.473Z,29.06
2022-08-05T17:11:16.620Z,28.94
2022-08-05T17:13:45.071Z,28.87
2022-08-05T17:16:32.577Z,28.76
2022-08-05T17:19:00.407Z,28.68
2022-08-05T17:21:35.484Z,28.61
2022-08-05T17:24:19.348Z,28.54
2022-08-05T17:26:53.185Z,28.44
2022-08-05T17:29:22.775Z,28.35
2022-08-05T17:32:01.064Z,28.25
2022-08-05T17:34:29.571Z,28.18
2022-08-05T17:36:57.207Z,27.99
2022-08-05T17:39:34.348Z,27.94
2022-08-05T17:42:28.612Z,27.82
2022-08-05T17:44:51.049Z,27.69
2022-08-05T17:47:22.148Z,27.47
2022-08-05T17:50:04.050Z,27.39
2022-08-05T17:52:53.400Z,27.24
2022-08-05T17:55:34.152Z,27.10
2022-08-05T17:58:02.680Z,26.95
2022-08-05T18:00:30.257Z,26.84
2022-08-05T18:02:57.874Z,26.66
2022-08-05T18:05:27.989Z,26.52
2022-08-05T18:07:56.859Z,26.34
2022-08-05T18:10:23.974Z,26.17
2022-08-05T18:12:51.750Z,26.02
2022-08-05T18:15:19.154Z,25.85
2022-08-05T18:17:59.269Z,25.67
2022-08-05T18:20:32.530Z,25.49
2022-08-05T18:23:09.342Z,25.31
2022-08-05T18:25:44.865Z,25.14
2022-08-05T18:28:16.426Z,24.98
2022-08-05T18:30:45.425Z,24.82
2022-08-05T18:33:16.895Z,24.68
2022-08-05T18:36:03.188Z,24.51
2022-08-05T18:38:36.043Z,24.35
2022-08-05T18:41:53.312Z,24.16
2022-08-05T18:43:54.749Z,24.01
2022-08-05T18:46:26.023Z,23.92
2022-08-05T18:48:56.060Z,23.78
2022-08-05T18:52:04.970Z,23.65
2022-08-05T18:54:31.906Z,23.51
2022-08-05T18:57:01.203Z,23.36
2022-08-05T18:59:43.687Z,23.18
2022-08-05T19:02:27.708Z,23.10
2022-08-05T19:05:02.418Z,23.04
2022-08-05T19:07:50.231Z,22.92
2022-08-05T19:10:27.867Z,22.80
2022-08-05T19:12:57.092Z,22.69
2022-08-05T19:15:57.766Z,22.58
2022-08-05T19:18:20.725Z,22.47
2022-08-05T19:20:52.503Z,22.35
2022-08-05T19:24:03.878Z,22.26
2022-08-05T19:26:08.552Z,22.18
2022-08-05T19:28:43.158Z,22.09
2022-08-05T19:31:13.178Z,22.00
2022-08-05T19:33:48.470Z,21.91
2022-08-05T19:36:26.901Z,21.84
2022-08-05T19:39:00.574Z,21.77
2022-08-05T19:41:58.124Z,21.68
2022-08-05T19:44:17.505Z,21.62
2022-08-05T19:46:45.723Z,21.55
2022-08-05T19:49:16.997Z,21.49
2022-08-05T19:52:13.079Z,21.43
2022-08-05T19:54:34.545Z,21.32
2022-08-05T19:57:06.850Z,21.20
2022-08-05T20:00:00.881Z,21.14
2022-08-05T20:02:27.050Z,21.04
2022-08-05T20:04:58.422Z,20.98
2022-08-05T20:07:48.369Z,20.94
2022-08-05T20:10:14.104Z,20.84
2022-08-05T20:12:46.155Z,20.75
2022-08-05T20:15:23.318Z,20.71
2022-08-05T20:18:10.922Z,20.66
2022-08-05T20:20:56.244Z,20.62
2022-08-05T20:23:40.102Z,20.47
2022-08-05T20:26:16.248Z,20.44
2022-08-05T20:28:50.520Z,20.39
2022-08-05T20:31:21.857Z,20.35
2022-08-05T20:33:55.969Z,20.31
2022-08-05T20:36:24.203Z,20.33
2022-08-05T20:38:54.654Z,20.30
2022-08-05T20:41:44.254Z,20.26
2022-08-05T20:44:17.822Z,20.22
2022-08-05T20:46:47.820Z,20.13
2022-08-05T20:49:15.251Z,20.10
2022-08-05T20:51:53.349Z,20.05
2022-08-05T20:54:21.031Z,19.98
2022-08-05T20:56:48.950Z,19.93
2022-08-05T20:59:19.277Z,19.85
2022-08-05T21:01:57.271Z,19.79
2022-08-05T21:04:27.036Z,19.70
2022-08-05T21:06:54.861Z,19.66
2022-08-05T21:09:22.969Z,19.63
2022-08-05T21:12:10.961Z,19.57
2022-08-05T21:14:38.457Z,19.50
2022-08-05T21:17:06.288Z,19.46
2022-08-05T21:19:47.288Z,19.41
2022-08-05T21:22:18.555Z,19.36
2022-08-05T21:24:57.039Z,19.30
2022-08-05T21:27:24.771Z,19.29
2022-08-05T21:29:56.399Z,19.27
2022-08-05T21:32:26.586Z,19.18
2022-08-05T21:35:08.638Z,19.23
2022-08-05T21:37:52.949Z,19.21
2022-08-05T21:40:23.177Z,19.17
2022-08-05T21:42:51.867Z,19.15
2022-08-05T21:45:25.185Z,19.12
2022-08-05T21:48:06.306Z,19.05
2022-08-05T21:50:36.618Z,19.01
2022-08-05T21:53:16.572Z,18.88
2022-08-05T21:56:04.866Z,18.87
2022-08-05T21:58:32.646Z,18.83
2022-08-05T22:01:00.410Z,18.77
2022-08-05T22:03:52.168Z,18.78
2022-08-05T22:06:22.511Z,18.72
2022-08-05T22:08:52.223Z,18.68
2022-08-05T22:11:35.126Z,18.61
2022-08-05T22:14:06.006Z,18.62
2022-08-05T22:16:55.934Z,18.60
2022-08-05T22:20:02.970Z,18.59
2022-08-05T22:22:14.546Z,18.58
2022-08-05T22:25:00.610Z,18.54
2022-08-05T22:28:08.035Z,18.49
2022-08-05T22:30:32.262Z,18.48
2022-08-05T22:33:03.485Z,18.46
2022-08-05T22:35:48.161Z,18.41
2022-08-05T22:38:18.936Z,18.36
2022-08-05T22:40:49.351Z,18.34
2022-08-05T22:43:37.124Z,18.33
2022-08-05T22:46:11.907Z,18.28
2022-08-05T22:48:42.192Z,18.26
2022-08-05T22:51:15.776Z,18.26
2022-08-05T22:53:50.417Z,18.17
2022-08-05T22:56:30.230Z,18.19
2022-08-05T22:59:00.105Z,18.19
2022-08-05T23:01:50.853Z,18.18
2022-08-05T23:04:17.441Z,18.16
2022-08-05T23:06:44.464Z,18.16
2022-08-05T23:09:27.772Z,18.12
2022-08-05T23:11:59.794Z,18.12
2022-08-05T23:14:32.316Z,18.14
2022-08-05T23:17:24.504Z,18.14
2022-08-05T23:20:02.412Z,18.13
2022-08-05T23:22:30.829Z,18.12
2022-08-05T23:24:58.169Z,18.08
2022-08-05T23:27:31.235Z,18.08
2022-08-05T23:30:00.970Z,18.10
2022-08-05T23:32:28.573Z,18.04
2022-08-05T23:34:56.694Z,17.95
2022-08-05T23:37:23.648Z,17.90
2022-08-05T23:39:54.956Z,17.83
2022-08-05T23:42:23.589Z,17.78
2022-08-05T23:44:57.324Z,17.75
2022-08-05T23:47:25.089Z,17.72
2022-08-05T23:49:55.625Z,17.68
2022-08-05T23:52:27.820Z,17.64
2022-08-05T23:55:21.711Z,17.55
2022-08-05T23:57:52.773Z,17.52
